createdAt,value
2022-08-25T00:04:31.087Z,101725.59
2022-08-25T00:09:35.919Z,101728.13
2022-08-25T00:14:38.172Z,101742.00
2022-08-25T00:19:39.776Z,101722.97
2022-08-25T00:24:41.596Z,101724.66
2022-08-25T00:29:43.206Z,101730.63
2022-08-25T00:34:45.262Z,101728.06
2022-08-25T00:39:46.958Z,101729.78
2022-08-25T00:44:48.728Z,101731.47
2022-08-25T00:49:56.353Z,101743.53
2022-08-25T00:55:08.851Z,101736.63
2022-08-25T01:00:16.997Z,101740.88
2022-08-25T01:05:19.615Z,101751.97
2022-08-25T01:10:23.506Z,101745.03
2022-08-25T01:15:25.073Z,101739.75
2022-08-25T01:20:29.713Z,101737.94
2022-08-25T01:25:57.361Z,101756.72
2022-08-25T01:30:59.058Z,101741.28
2022-08-25T01:36:03.132Z,101725.13
2022-08-25T01:41:04.805Z,101725.88
2022-08-25T01:46:06.384Z,101705.28
2022-08-25T01:51:07.937Z,101707.13
2022-08-25T01:56:12.826Z,101692.38
2022-08-25T02:01:21.103Z,101706.25
2022-08-25T02:06:28.873Z,101700.22
2022-08-25T02:11:33.404Z,101720.06
2022-08-25T02:16:37.264Z,101725.03
2022-08-25T02:21:39.450Z,101729.13
2022-08-25T02:26:41.280Z,101733.41
2022-08-25T02:31:44.078Z,101749.69
2022-08-25T02:36:45.641Z,101763.63
2022-08-25T02:41:47.214Z,101765.28
2022-08-25T02:46:49.005Z,101748.03
2022-08-25T02:51:50.593Z,101763.69
2022-08-25T02:56:52.121Z,101757.66
2022-08-25T03:01:53.778Z,101747.97
2022-08-25T03:06:55.371Z,101749.66
2022-08-25T03:11:56.963Z,101748.69
2022-08-25T03:16:58.570Z,101769.16
2022-08-25T03:22:00.263Z,101761.41
2022-08-25T03:27:01.802Z,101740.56
2022-08-25T03:32:03.658Z,101747.22
2022-08-25T03:37:06.922Z,101728.19
2022-08-25T03:42:08.453Z,101711.03
2022-08-25T03:47:10.107Z,101723.88
2022-08-25T03:52:11.830Z,101731.66
2022-08-25T03:57:13.469Z,101734.53
2022-08-25T04:02:15.025Z,101710.75
2022-08-25T04:07:17.270Z,101686.78
2022-08-25T04:12:18.909Z,101668.84
2022-08-25T04:17:20.511Z,101655.81
2022-08-25T04:22:22.539Z,101655.09
2022-08-25T04:27:24.841Z,101639.50
2022-08-25T04:32:26.460Z,101647.41
2022-08-25T04:37:28.179Z,101643.94
2022-08-25T04:42:29.732Z,101636.94
2022-08-25T04:47:31.386Z,101646.47
2022-08-25T04:52:33.053Z,101650.78
2022-08-25T04:57:34.548Z,101659.53
2022-08-25T05:03:02.043Z,101654.34
2022-08-25T05:08:06.009Z,101646.63
2022-08-25T05:13:07.718Z,101646.72
2022-08-25T05:18:09.315Z,101651.09
2022-08-25T05:23:11.303Z,101656.41
2022-08-25T05:28:14.807Z,101646.06
2022-08-25T05:33:17.157Z,101644.38
2022-08-25T05:38:18.958Z,101634.91
2022-08-25T05:43:20.594Z,101621.94
2022-08-25T05:48:22.474Z,101630.69
2022-08-25T05:53:25.842Z,101621.13
2022-08-25T05:58:28.597Z,101627.25
2022-08-25T06:03:30.199Z,101629.00
2022-08-25T06:08:33.641Z,101630.78
2022-08-25T06:13:35.241Z,101625.50
2022-08-25T06:18:36.770Z,101627.19
2022-08-25T06:23:39.453Z,101623.63
2022-08-25T06:28:41.667Z,101627.03
2022-08-25T06:33:44.210Z,101617.19
2022-08-25T06:38:46.783Z,101626.63
2022-08-25T06:43:51.802Z,101624.75
2022-08-25T06:48:56.895Z,101611.31
2022-08-25T06:53:58.552Z,101613.69
2022-08-25T06:59:04.721Z,101601.66
2022-08-25T07:04:11.812Z,101599.69
2022-08-25T07:09:14.827Z,101610.09
2022-08-25T07:14:17.930Z,101599.94
2022-08-25T07:19:21.018Z,101601.88
2022-08-25T07:24:23.537Z,101592.75
2022-08-25T07:29:32.628Z,101592.72
2022-08-25T07:34:53.484Z,101593.28
2022-08-25T07:39:55.453Z,101583.94
2022-08-25T07:44:58.621Z,101582.66
2022-08-25T07:50:00.158Z,101576.25
2022-08-25T07:55:02.427Z,101575.72
2022-08-25T08:00:06.517Z,101579.47
2022-08-25T08:05:14.650Z,101587.94
2022-08-25T08:15:38.014Z,101574.69
2022-08-25T08:27:32.330Z,101572.09
2022-08-25T08:32:53.249Z,101574.56
2022-08-25T08:37:55.418Z,101568.63
2022-08-25T08:43:18.112Z,101563.63
2022-08-25T08:48:40.598Z,101563.50
2022-08-25T08:53:50.830Z,101546.97
2022-08-25T08:59:09.796Z,101543.59
2022-08-25T09:04:35.579Z,101542.19
2022-08-25T09:09:41.844Z,101543.69
2022-08-25T09:15:12.261Z,101529.69
2022-08-25T09:20:52.349Z,101524.19
2022-08-25T09:26:22.159Z,101524.28
2022-08-25T09:31:50.962Z,101521.84
2022-08-25T09:36:54.104Z,101517.03
2022-08-25T09:42:00.308Z,101512.44
2022-08-25T09:47:15.268Z,101498.38
2022-08-25T09:52:22.595Z,101497.81
2022-08-25T09:57:44.069Z,101495.53
2022-08-25T10:03:22.627Z,101484.81
2022-08-25T10:08:30.318Z,101481.81
2022-08-25T10:13:51.816Z,101476.50
2022-08-25T10:19:10.783Z,101487.22
2022-08-25T10:24:13.835Z,101483.78
2022-08-25T10:29:56.693Z,101472.88
2022-08-25T10:35:04.691Z,101461.00
2022-08-25T10:47:16.985Z,101452.19
2022-08-25T10:52:56.484Z,101448.25
2022-08-25T10:58:32.017Z,101437.63
2022-08-25T11:04:14.410Z,101433.66
2022-08-25T11:09:22.447Z,101424.47
2022-08-25T11:14:23.928Z,101431.19
2022-08-25T11:19:31.218Z,101424.66
2022-08-25T11:24:38.452Z,101419.75
2022-08-25T11:29:43.891Z,101413.31
2022-08-25T11:34:45.697Z,101417.69
2022-08-25T11:40:17.318Z,101405.47
2022-08-25T11:45:54.473Z,101398.81
2022-08-25T11:51:05.688Z,101395.13
2022-08-25T11:56:12.490Z,101393.69
2022-08-25T12:01:35.723Z,101392.75
2022-08-25T12:07:02.963Z,101384.28
2022-08-25T12:12:38.470Z,101376.28
2022-08-25T12:17:41.290Z,101371.56
2022-08-25T12:22:55.258Z,101360.22
2022-08-25T12:28:35.435Z,101350.91
2022-08-25T12:34:15.466Z,101356.94
2022-08-25T12:39:26.362Z,101359.69
2022-08-25T12:44:36.823Z,101359.91
2022-08-25T12:49:38.674Z,101354.00
2022-08-25T12:54:55.613Z,101339.63
2022-08-25T13:00:01.590Z,101340.94
2022-08-25T13:05:25.348Z,101342.09
2022-08-25T13:10:46.084Z,101345.38
2022-08-25T13:16:08.880Z,101337.06
2022-08-25T13:21:28.341Z,101333.44
2022-08-25T13:26:35.257Z,101325.72
2022-08-25T13:31:58.152Z,101320.22
2022-08-25T13:37:33.212Z,101304.50
2022-08-25T13:42:36.460Z,101302.00
2022-08-25T13:47:43.634Z,101295.91
2022-08-25T13:53:12.872Z,101288.78
2022-08-25T13:58:44.545Z,101279.84
2022-08-25T14:10:49.636Z,101275.56
2022-08-25T14:15:51.201Z,101276.63
2022-08-25T14:20:54.964Z,101269.88
2022-08-25T14:25:57.868Z,101267.91
2022-08-25T14:31:05.156Z,101262.34
2022-08-25T14:36:07.382Z,101252.22
2022-08-25T14:46:21.385Z,101241.72
2022-08-25T14:51:24.277Z,101249.84
2022-08-25T14:56:27.741Z,101237.06
2022-08-25T15:01:34.256Z,101236.03
2022-08-25T15:06:37.039Z,101235.16
2022-08-25T15:11:44.376Z,101225.41
2022-08-25T15:16:50.193Z,101224.38
2022-08-25T15:21:51.919Z,101221.13
2022-08-25T15:27:04.509Z,101219.91
2022-08-25T15:32:07.816Z,101217.16
2022-08-25T15:37:13.457Z,101211.38
2022-08-25T15:42:16.631Z,101204.97
2022-08-25T15:47:18.910Z,101198.81
2022-08-25T15:52:28.174Z,101208.66
2022-08-25T15:57:29.928Z,101206.19
2022-08-25T16:02:33.271Z,101199.81
2022-08-25T16:07:34.828Z,101200.50
2022-08-25T16:12:39.988Z,101197.06
2022-08-25T16:17:46.980Z,101196.94
2022-08-25T16:22:52.610Z,101198.69
2022-08-25T16:27:54.244Z,101194.50
2022-08-25T16:32:55.815Z,101193.03
2022-08-25T16:37:57.465Z,101182.97
2022-08-25T16:42:59.606Z,101188.38
2022-08-25T16:48:01.228Z,101187.91
2022-08-25T16:53:23.781Z,101181.38
2022-08-25T16:58:25.571Z,101182.94
2022-08-25T17:03:32.214Z,101186.25
2022-08-25T17:08:37.200Z,101187.88
2022-08-25T17:13:44.579Z,101182.47
2022-08-25T17:18:47.739Z,101183.91
2022-08-25T17:23:51.330Z,101186.44
2022-08-25T17:28:53.499Z,101183.25
2022-08-25T17:33:56.190Z,101189.78
2022-08-25T17:38:57.921Z,101179.16
2022-08-25T17:43:59.969Z,101181.38
2022-08-25T17:49:05.780Z,101183.59
2022-08-25T17:54:07.511Z,101190.03
2022-08-25T17:59:09.231Z,101187.75
2022-08-25T18:04:17.060Z,101185.94
2022-08-25T18:09:19.622Z,101192.25
2022-08-25T18:14:25.538Z,101197.56
2022-08-25T18:19:27.357Z,101197.78
2022-08-25T18:24:29.074Z,101200.94
2022-08-25T18:29:31.575Z,101201.06
2022-08-25T18:34:33.822Z,101203.38
2022-08-25T18:39:56.461Z,101202.59
2022-08-25T18:44:58.132Z,101201.53
2022-08-25T18:50:04.370Z,101210.53
2022-08-25T18:55:06.877Z,101212.28
2022-08-25T19:00:11.049Z,101218.91
2022-08-25T19:05:41.391Z,101216.88
2022-08-25T19:10:52.832Z,101215.81
2022-08-25T19:15:54.428Z,101224.66
2022-08-25T19:20:56.134Z,101219.44
2022-08-25T19:25:58.117Z,101219.84
2022-08-25T19:31:00.942Z,101218.38
2022-08-25T19:36:03.351Z,101236.53
2022-08-25T19:41:10.799Z,101237.28
2022-08-25T19:46:16.471Z,101237.75
2022-08-25T19:51:21.962Z,101243.63
2022-08-25T19:56:23.655Z,101252.63
2022-08-25T20:01:25.594Z,101242.94
2022-08-25T20:06:27.739Z,101263.66
2022-08-25T20:11:30.345Z,101277.72
2022-08-25T20:16:32.489Z,101281.47
2022-08-25T20:21:35.282Z,101290.44
2022-08-25T20:26:39.167Z,101299.31
2022-08-25T20:31:44.613Z,101307.28
2022-08-25T20:36:49.868Z,101309.94
2022-08-25T20:41:52.182Z,101309.97
2022-08-25T20:46:54.723Z,101303.84
2022-08-25T20:51:56.280Z,101308.19
2022-08-25T20:56:57.806Z,101324.00
2022-08-25T21:01:59.422Z,101317.06
2022-08-25T21:07:01.282Z,101317.13
2022-08-25T21:12:06.856Z,101316.19
2022-08-25T21:17:12.776Z,101311.91
2022-08-25T21:22:14.398Z,101304.03
2022-08-25T21:27:16.904Z,101307.59
2022-08-25T21:32:19.316Z,101317.13
2022-08-25T21:37:21.063Z,101323.31
2022-08-25T21:42:24.831Z,101329.53
2022-08-25T21:47:26.608Z,101345.19
2022-08-25T21:52:28.323Z,101333.03
2022-08-25T21:57:32.224Z,101367.75
2022-08-25T22:02:38.548Z,101360.84
2022-08-25T22:07:43.800Z,101339.50
2022-08-25T22:12:46.947Z,101342.88
2022-08-25T22:17:49.247Z,101356.59
2022-08-25T22:22:51.440Z,101387.88
2022-08-25T22:27:56.631Z,101400.06
2022-08-25T22:33:00.264Z,101407.03
2022-08-25T22:38:05.299Z,101416.59
2022-08-25T22:43:09.129Z,101422.72
2022-08-25T22:48:12.630Z,101434.97
2022-08-25T22:53:14.131Z,101439.28
2022-08-25T22:58:15.915Z,101450.66
2022-08-25T23:03:17.472Z,101466.44
2022-08-25T23:08:31.100Z,101465.56
2022-08-25T23:13:42.608Z,101462.06
2022-08-25T23:18:44.988Z,101470.00
2022-08-25T23:23:47.893Z,101478.75
2022-08-25T23:28:50.618Z,101470.84
2022-08-25T23:33:52.367Z,101473.47
2022-08-25T23:38:54.623Z,101469.19
2022-08-25T23:43:56.156Z,101470.91
2022-08-25T23:48:57.825Z,101473.63
2022-08-25T23:54:06.387Z,101472.75
2022-08-25T23:59:10.905Z,101480.59
